sensor_id;sensor_type;location;lat;lon;timestamp;P1;durP1;ratioP1;P2;durP2;ratioP2
22131;SDS011;11232;51.748;19.390;2022-09-09T00:09:25;15.05;;;9.32;;
22131;SDS011;11232;51.748;19.390;2022-09-09T00:17:34;16.67;;;9.48;;
22131;SDS011;11232;51.748;19.390;2022-09-09T00:20:27;17.40;;;10.18;;
22131;SDS011;11232;51.748;19.390;2022-09-09T00:23:12;16.73;;;9.68;;
22131;SDS011;11232;51.748;19.390;2022-09-09T00:25:57;14.50;;;9.80;;
22131;SDS011;11232;51.748;19.390;2022-09-09T00:28:28;18.27;;;9.85;;
22131;SDS011;11232;51.748;19.390;2022-09-09T00:30:57;15.45;;;9.90;;
22131;SDS011;11232;51.748;19.390;2022-09-09T00:33:32;16.90;;;10.25;;
22131;SDS011;11232;51.748;19.390;2022-09-09T00:35:59;16.88;;;10.18;;
22131;SDS011;11232;51.748;19.390;2022-09-09T00:38:28;19.13;;;10.70;;
22131;SDS011;11232;51.748;19.390;2022-09-09T00:43:57;17.63;;;10.65;;
22131;SDS011;11232;51.748;19.390;2022-09-09T00:51:55;16.55;;;9.85;;
22131;SDS011;11232;51.748;19.390;2022-09-09T00:57:13;17.73;;;9.88;;
22131;SDS011;11232;51.748;19.390;2022-09-09T00:59:56;15.90;;;10.27;;
22131;SDS011;11232;51.748;19.390;2022-09-09T01:11:01;15.93;;;10.18;;
22131;SDS011;11232;51.748;19.390;2022-09-09T01:13:34;19.40;;;11.52;;
22131;SDS011;11232;51.748;19.390;2022-09-09T01:16:01;15.82;;;10.35;;
22131;SDS011;11232;51.748;19.390;2022-09-09T01:18:30;15.70;;;10.80;;
22131;SDS011;11232;51.748;19.390;2022-09-09T01:21:09;21.13;;;11.25;;
22131;SDS011;11232;51.748;19.390;2022-09-09T01:24:26;24.55;;;11.48;;
22131;SDS011;11232;51.748;19.390;2022-09-09T01:27:02;17.35;;;11.63;;
22131;SDS011;11232;51.748;19.390;2022-09-09T01:29:30;18.15;;;11.35;;
22131;SDS011;11232;51.748;19.390;2022-09-09T01:31:57;23.25;;;11.82;;
22131;SDS011;11232;51.748;19.390;2022-09-09T01:34:27;19.33;;;11.52;;
22131;SDS011;11232;51.748;19.390;2022-09-09T01:37:02;18.85;;;12.02;;
22131;SDS011;11232;51.748;19.390;2022-09-09T01:39:31;18.65;;;11.20;;
22131;SDS011;11232;51.748;19.390;2022-09-09T01:41:58;16.48;;;11.55;;
22131;SDS011;11232;51.748;19.390;2022-09-09T01:44:24;18.65;;;11.15;;
22131;SDS011;11232;51.748;19.390;2022-09-09T01:46:51;21.17;;;12.00;;
22131;SDS011;11232;51.748;19.390;2022-09-09T01:49:17;20.88;;;12.05;;
22131;SDS011;11232;51.748;19.390;2022-09-09T01:51:43;19.98;;;12.57;;
22131;SDS011;11232;51.748;19.390;2022-09-09T01:54:14;18.42;;;11.88;;
22131;SDS011;11232;51.748;19.390;2022-09-09T01:57:23;22.92;;;12.13;;
22131;SDS011;11232;51.748;19.390;2022-09-09T02:04:55;22.55;;;12.15;;
22131;SDS011;11232;51.748;19.390;2022-09-09T02:10:37;20.30;;;12.15;;
22131;SDS011;11232;51.748;19.390;2022-09-09T02:15:34;21.88;;;12.82;;
22131;SDS011;11232;51.748;19.390;2022-09-09T02:18:04;22.38;;;12.65;;
22131;SDS011;11232;51.748;19.390;2022-09-09T02:20:33;18.23;;;12.15;;
22131;SDS011;11232;51.748;19.390;2022-09-09T02:23:02;18.85;;;12.25;;
22131;SDS011;11232;51.748;19.390;2022-09-09T02:25:30;19.60;;;13.00;;
22131;SDS011;11232;51.748;19.390;2022-09-09T02:28:00;26.08;;;12.73;;
22131;SDS011;11232;51.748;19.390;2022-09-09T02:30:28;19.73;;;12.85;;
22131;SDS011;11232;51.748;19.390;2022-09-09T02:32:57;22.42;;;13.30;;
22131;SDS011;11232;51.748;19.390;2022-09-09T02:35:26;26.17;;;12.73;;
22131;SDS011;11232;51.748;19.390;2022-09-09T02:37:56;21.35;;;12.70;;
22131;SDS011;11232;51.748;19.390;2022-09-09T02:40:24;19.20;;;12.10;;
22131;SDS011;11232;51.748;19.390;2022-09-09T02:42:50;21.20;;;12.82;;
22131;SDS011;11232;51.748;19.390;2022-09-09T02:45:16;18.92;;;12.32;;
22131;SDS011;11232;51.748;19.390;2022-09-09T02:51:06;19.55;;;12.85;;
22131;SDS011;11232;51.748;19.390;2022-09-09T02:53:44;21.00;;;12.73;;
22131;SDS011;11232;51.748;19.390;2022-09-09T02:56:21;19.75;;;12.02;;
22131;SDS011;11232;51.748;19.390;2022-09-09T02:58:49;21.10;;;13.48;;
22131;SDS011;11232;51.748;19.390;2022-09-09T03:01:17;27.90;;;13.25;;
22131;SDS011;11232;51.748;19.390;2022-09-09T03:03:42;21.80;;;13.25;;
22131;SDS011;11232;51.748;19.390;2022-09-09T03:06:09;22.42;;;13.57;;
22131;SDS011;11232;51.748;19.390;2022-09-09T03:08:36;19.95;;;12.27;;
22131;SDS011;11232;51.748;19.390;2022-09-09T03:11:02;21.83;;;13.40;;
22131;SDS011;11232;51.748;19.390;2022-09-09T03:13:28;21.90;;;12.85;;
22131;SDS011;11232;51.748;19.390;2022-09-09T03:15:54;24.17;;;14.43;;
22131;SDS011;11232;51.748;19.390;2022-09-09T03:18:20;18.35;;;12.95;;
22131;SDS011;11232;51.748;19.390;2022-09-09T03:20:46;22.52;;;12.60;;
22131;SDS011;11232;51.748;19.390;2022-09-09T03:23:15;24.27;;;13.98;;
22131;SDS011;11232;51.748;19.390;2022-09-09T03:25:51;23.05;;;13.75;;
22131;SDS011;11232;51.748;19.390;2022-09-09T03:28:19;21.50;;;13.35;;
22131;SDS011;11232;51.748;19.390;2022-09-09T03:30:45;21.83;;;13.15;;
22131;SDS011;11232;51.748;19.390;2022-09-09T03:33:11;22.40;;;14.30;;
22131;SDS011;11232;51.748;19.390;2022-09-09T03:35:37;30.75;;;14.40;;
22131;SDS011;11232;51.748;19.390;2022-09-09T03:38:03;26.50;;;14.90;;
22131;SDS011;11232;51.748;19.390;2022-09-09T03:40:29;26.83;;;14.45;;
22131;SDS011;11232;51.748;19.390;2022-09-09T03:42:56;26.67;;;16.00;;
22131;SDS011;11232;51.748;19.390;2022-09-09T03:45:21;32.30;;;16.42;;
22131;SDS011;11232;51.748;19.390;2022-09-09T03:47:47;32.03;;;16.92;;
22131;SDS011;11232;51.748;19.390;2022-09-09T03:50:12;26.33;;;15.93;;
22131;SDS011;11232;51.748;19.390;2022-09-09T03:52:38;27.67;;;16.27;;
22131;SDS011;11232;51.748;19.390;2022-09-09T03:55:05;29.60;;;16.20;;
22131;SDS011;11232;51.748;19.390;2022-09-09T03:57:32;35.25;;;17.23;;
22131;SDS011;11232;51.748;19.390;2022-09-09T04:00:00;35.67;;;17.90;;
22131;SDS011;11232;51.748;19.390;2022-09-09T04:02:30;38.05;;;17.38;;
22131;SDS011;11232;51.748;19.390;2022-09-09T04:04:55;31.33;;;17.65;;
22131;SDS011;11232;51.748;19.390;2022-09-09T04:07:21;33.03;;;18.23;;
22131;SDS011;11232;51.748;19.390;2022-09-09T04:09:50;37.08;;;17.30;;
22131;SDS011;11232;51.748;19.390;2022-09-09T04:12:16;34.45;;;17.35;;
22131;SDS011;11232;51.748;19.390;2022-09-09T04:14:42;39.38;;;19.13;;
22131;SDS011;11232;51.748;19.390;2022-09-09T04:17:08;41.25;;;19.20;;
22131;SDS011;11232;51.748;19.390;2022-09-09T04:19:35;36.13;;;19.27;;
22131;SDS011;11232;51.748;19.390;2022-09-09T04:22:00;44.47;;;20.60;;
22131;SDS011;11232;51.748;19.390;2022-09-09T04:24:26;52.35;;;20.73;;
22131;SDS011;11232;51.748;19.390;2022-09-09T04:26:54;47.97;;;21.75;;
22131;SDS011;11232;51.748;19.390;2022-09-09T04:29:20;43.65;;;21.55;;
22131;SDS011;11232;51.748;19.390;2022-09-09T04:31:46;51.75;;;21.05;;
22131;SDS011;11232;51.748;19.390;2022-09-09T04:34:11;54.22;;;22.60;;
22131;SDS011;11232;51.748;19.390;2022-09-09T04:36:37;50.80;;;21.55;;
22131;SDS011;11232;51.748;19.390;2022-09-09T04:39:04;64.82;;;23.15;;
22131;SDS011;11232;51.748;19.390;2022-09-09T04:41:29;69.57;;;22.88;;
22131;SDS011;11232;51.748;19.390;2022-09-09T04:43:56;57.15;;;22.52;;
22131;SDS011;11232;51.748;19.390;2022-09-09T04:46:22;69.53;;;24.30;;
22131;SDS011;11232;51.748;19.390;2022-09-09T04:48:48;77.57;;;25.63;;
22131;SDS011;11232;51.748;19.390;2022-09-09T04:51:15;55.63;;;23.00;;
22131;SDS011;11232;51.748;19.390;2022-09-09T04:53:41;58.40;;;24.92;;
22131;SDS011;11232;51.748;19.390;2022-09-09T04:56:07;58.70;;;24.42;;
22131;SDS011;11232;51.748;19.390;2022-09-09T04:58:38;65.75;;;24.10;;
22131;SDS011;11232;51.748;19.390;2022-09-09T05:01:05;68.10;;;25.05;;
22131;SDS011;11232;51.748;19.390;2022-09-09T05:03:32;67.00;;;25.05;;
22131;SDS011;11232;51.748;19.390;2022-09-09T05:06:05;54.78;;;23.10;;
22131;SDS011;11232;51.748;19.390;2022-09-09T05:08:36;58.85;;;25.10;;
22131;SDS011;11232;51.748;19.390;2022-09-09T05:11:03;64.72;;;24.70;;
22131;SDS011;11232;51.748;19.390;2022-09-09T05:13:36;62.35;;;25.95;;
22131;SDS011;11232;51.748;19.390;2022-09-09T05:16:02;62.63;;;27.38;;
22131;SDS011;11232;51.748;19.390;2022-09-09T05:18:27;60.92;;;26.30;;
22131;SDS011;11232;51.748;19.390;2022-09-09T05:20:58;56.90;;;28.13;;
22131;SDS011;11232;51.748;19.390;2022-09-09T05:23:24;57.88;;;26.75;;
22131;SDS011;11232;51.748;19.390;2022-09-09T05:25:56;51.05;;;24.30;;
22131;SDS011;11232;51.748;19.390;2022-09-09T05:28:23;52.58;;;25.15;;
22131;SDS011;11232;51.748;19.390;2022-09-09T05:31:00;53.45;;;24.13;;
22131;SDS011;11232;51.748;19.390;2022-09-09T05:33:33;46.10;;;23.30;;
22131;SDS011;11232;51.748;19.390;2022-09-09T05:36:00;49.67;;;22.65;;
22131;SDS011;11232;51.748;19.390;2022-09-09T05:38:29;42.60;;;21.75;;
22131;SDS011;11232;51.748;19.390;2022-09-09T05:40:55;44.22;;;22.23;;
22131;SDS011;11232;51.748;19.390;2022-09-09T05:43:24;77.35;;;38.25;;
22131;SDS011;11232;51.748;19.390;2022-09-09T05:48:39;41.78;;;22.20;;
22131;SDS011;11232;51.748;19.390;2022-09-09T05:51:07;43.63;;;20.70;;
22131;SDS011;11232;51.748;19.390;2022-09-09T05:53:35;38.53;;;20.52;;
22131;SDS011;11232;51.748;19.390;2022-09-09T05:56:05;39.65;;;22.20;;
22131;SDS011;11232;51.748;19.390;2022-09-09T05:58:36;41.35;;;20.63;;
22131;SDS011;11232;51.748;19.390;2022-09-09T06:01:07;39.38;;;21.20;;
22131;SDS011;11232;51.748;19.390;2022-09-09T06:03:35;44.35;;;22.10;;
22131;SDS011;11232;51.748;19.390;2022-09-09T06:06:03;36.40;;;21.15;;
22131;SDS011;11232;51.748;19.390;2022-09-09T06:08:31;42.10;;;21.55;;
22131;SDS011;11232;51.748;19.390;2022-09-09T06:11:02;37.92;;;21.20;;
22131;SDS011;11232;51.748;19.390;2022-09-09T06:13:29;37.80;;;20.92;;
22131;SDS011;11232;51.748;19.390;2022-09-09T06:15:55;37.80;;;21.52;;
22131;SDS011;11232;51.748;19.390;2022-09-09T06:18:21;39.25;;;22.20;;
22131;SDS011;11232;51.748;19.390;2022-09-09T06:21:00;35.55;;;21.45;;
22131;SDS011;11232;51.748;19.390;2022-09-09T06:23:29;38.72;;;21.80;;
22131;SDS011;11232;51.748;19.390;2022-09-09T06:28:38;32.90;;;20.13;;
22131;SDS011;11232;51.748;19.390;2022-09-09T06:31:05;33.30;;;19.50;;
22131;SDS011;11232;51.748;19.390;2022-09-09T06:33:33;32.03;;;20.42;;
22131;SDS011;11232;51.748;19.390;2022-09-09T06:36:00;34.00;;;21.67;;
22131;SDS011;11232;51.748;19.390;2022-09-09T06:38:27;31.48;;;20.52;;
22131;SDS011;11232;51.748;19.390;2022-09-09T06:40:56;33.30;;;20.70;;
22131;SDS011;11232;51.748;19.390;2022-09-09T06:43:23;31.83;;;19.45;;
22131;SDS011;11232;51.748;19.390;2022-09-09T06:45:53;32.75;;;20.10;;
22131;SDS011;11232;51.748;19.390;2022-09-09T06:48:22;36.35;;;20.80;;
22131;SDS011;11232;51.748;19.390;2022-09-09T06:50:48;31.20;;;19.90;;
22131;SDS011;11232;51.748;19.390;2022-09-09T06:53:17;29.92;;;19.73;;
22131;SDS011;11232;51.748;19.390;2022-09-09T06:55:44;28.40;;;19.70;;
22131;SDS011;11232;51.748;19.390;2022-09-09T06:58:10;28.52;;;18.75;;
22131;SDS011;11232;51.748;19.390;2022-09-09T07:00:36;27.60;;;18.33;;
22131;SDS011;11232;51.748;19.390;2022-09-09T07:03:04;29.10;;;18.88;;
22131;SDS011;11232;51.748;19.390;2022-09-09T07:05:31;73.15;;;42.80;;
22131;SDS011;11232;51.748;19.390;2022-09-09T07:07:56;34.10;;;20.17;;
22131;SDS011;11232;51.748;19.390;2022-09-09T07:10:23;30.60;;;19.85;;
22131;SDS011;11232;51.748;19.390;2022-09-09T07:12:52;28.35;;;18.55;;
22131;SDS011;11232;51.748;19.390;2022-09-09T07:15:18;65.90;;;25.77;;
22131;SDS011;11232;51.748;19.390;2022-09-09T07:17:44;62.30;;;23.77;;
22131;SDS011;11232;51.748;19.390;2022-09-09T07:20:10;71.30;;;25.58;;
22131;SDS011;11232;51.748;19.390;2022-09-09T07:22:36;27.92;;;18.17;;
22131;SDS011;11232;51.748;19.390;2022-09-09T07:25:02;31.20;;;18.08;;
22131;SDS011;11232;51.748;19.390;2022-09-09T07:27:28;37.22;;;19.48;;
22131;SDS011;11232;51.748;19.390;2022-09-09T07:29:53;26.92;;;18.38;;
22131;SDS011;11232;51.748;19.390;2022-09-09T07:32:19;41.65;;;27.73;;
22131;SDS011;11232;51.748;19.390;2022-09-09T07:34:45;31.65;;;22.45;;
22131;SDS011;11232;51.748;19.390;2022-09-09T07:37:12;27.88;;;19.92;;
22131;SDS011;11232;51.748;19.390;2022-09-09T07:39:38;20.60;;;15.32;;
22131;SDS011;11232;51.748;19.390;2022-09-09T07:42:05;18.80;;;14.20;;
22131;SDS011;11232;51.748;19.390;2022-09-09T07:44:31;19.48;;;13.75;;
22131;SDS011;11232;51.748;19.390;2022-09-09T07:47:00;24.95;;;14.85;;
22131;SDS011;11232;51.748;19.390;2022-09-09T07:49:26;20.00;;;13.95;;
22131;SDS011;11232;51.748;19.390;2022-09-09T07:51:51;20.27;;;14.43;;
22131;SDS011;11232;51.748;19.390;2022-09-09T07:54:18;16.75;;;13.02;;
22131;SDS011;11232;51.748;19.390;2022-09-09T07:56:48;16.25;;;13.35;;
22131;SDS011;11232;51.748;19.390;2022-09-09T07:59:15;17.13;;;13.05;;
22131;SDS011;11232;51.748;19.390;2022-09-09T08:01:48;13.80;;;11.90;;
22131;SDS011;11232;51.748;19.390;2022-09-09T08:04:19;16.33;;;11.70;;
22131;SDS011;11232;51.748;19.390;2022-09-09T08:06:51;12.20;;;10.60;;
22131;SDS011;11232;51.748;19.390;2022-09-09T08:09:19;12.13;;;10.40;;
22131;SDS011;11232;51.748;19.390;2022-09-09T08:11:46;11.43;;;10.32;;
22131;SDS011;11232;51.748;19.390;2022-09-09T08:14:12;12.15;;;10.75;;
22131;SDS011;11232;51.748;19.390;2022-09-09T08:16:39;10.27;;;9.20;;
22131;SDS011;11232;51.748;19.390;2022-09-09T08:19:07;11.23;;;9.35;;
22131;SDS011;11232;51.748;19.390;2022-09-09T08:21:34;10.70;;;9.05;;
22131;SDS011;11232;51.748;19.390;2022-09-09T08:24:01;10.35;;;8.50;;
22131;SDS011;11232;51.748;19.390;2022-09-09T08:26:29;16.60;;;13.05;;
22131;SDS011;11232;51.748;19.390;2022-09-09T08:28:57;11.40;;;10.02;;
22131;SDS011;11232;51.748;19.390;2022-09-09T08:31:25;8.43;;;7.68;;
22131;SDS011;11232;51.748;19.390;2022-09-09T08:33:59;7.88;;;7.18;;
22131;SDS011;11232;51.748;19.390;2022-09-09T08:36:25;10.43;;;7.22;;
22131;SDS011;11232;51.748;19.390;2022-09-09T08:38:54;7.53;;;6.85;;
22131;SDS011;11232;51.748;19.390;2022-09-09T08:52:22;7.72;;;7.03;;
22131;SDS011;11232;51.748;19.390;2022-09-09T08:55:01;9.00;;;8.10;;
22131;SDS011;11232;51.748;19.390;2022-09-09T08:57:48;15.50;;;12.75;;
22131;SDS011;11232;51.748;19.390;2022-09-09T09:00:16;7.47;;;6.40;;
22131;SDS011;11232;51.748;19.390;2022-09-09T09:08:56;5.50;;;5.03;;
22131;SDS011;11232;51.748;19.390;2022-09-09T09:11:43;5.38;;;4.45;;
22131;SDS011;11232;51.748;19.390;2022-09-09T09:14:19;4.78;;;4.38;;
22131;SDS011;11232;51.748;19.390;2022-09-09T09:16:58;5.47;;;5.07;;
22131;SDS011;11232;51.748;19.390;2022-09-09T09:19:28;7.80;;;6.30;;
22131;SDS011;11232;51.748;19.390;2022-09-09T09:24:56;10.10;;;6.05;;
22131;SDS011;11232;51.748;19.390;2022-09-09T09:30:24;5.55;;;5.05;;
22131;SDS011;11232;51.748;19.390;2022-09-09T09:35:38;5.10;;;4.75;;
22131;SDS011;11232;51.748;19.390;2022-09-09T09:38:20;4.88;;;4.47;;
22131;SDS011;11232;51.748;19.390;2022-09-09T09:40:48;4.70;;;4.20;;
22131;SDS011;11232;51.748;19.390;2022-09-09T09:43:35;4.28;;;3.88;;
22131;SDS011;11232;51.748;19.390;2022-09-09T09:46:05;4.30;;;3.90;;
22131;SDS011;11232;51.748;19.390;2022-09-09T09:49:01;4.25;;;3.90;;
22131;SDS011;11232;51.748;19.390;2022-09-09T09:51:31;3.90;;;3.65;;
22131;SDS011;11232;51.748;19.390;2022-09-09T09:54:03;4.20;;;3.90;;
22131;SDS011;11232;51.748;19.390;2022-09-09T09:56:38;4.85;;;4.45;;
22131;SDS011;11232;51.748;19.390;2022-09-09T09:59:05;5.10;;;4.70;;
22131;SDS011;11232;51.748;19.390;2022-09-09T10:01:43;4.93;;;4.53;;
22131;SDS011;11232;51.748;19.390;2022-09-09T10:06:43;8.38;;;4.53;;
22131;SDS011;11232;51.748;19.390;2022-09-09T10:09:25;4.78;;;4.38;;
22131;SDS011;11232;51.748;19.390;2022-09-09T10:12:15;5.20;;;4.75;;
22131;SDS011;11232;51.748;19.390;2022-09-09T10:23:58;5.88;;;4.55;;
22131;SDS011;11232;51.748;19.390;2022-09-09T10:35:01;6.03;;;4.70;;
22131;SDS011;11232;51.748;19.390;2022-09-09T10:43:16;5.40;;;4.82;;
22131;SDS011;11232;51.748;19.390;2022-09-09T10:52:22;7.10;;;4.53;;
22131;SDS011;11232;51.748;19.390;2022-09-09T10:55:11;4.55;;;4.25;;
22131;SDS011;11232;51.748;19.390;2022-09-09T10:57:45;5.03;;;4.53;;
22131;SDS011;11232;51.748;19.390;2022-09-09T11:00:15;5.15;;;4.65;;
22131;SDS011;11232;51.748;19.390;2022-09-09T11:02:44;4.80;;;4.20;;
22131;SDS011;11232;51.748;19.390;2022-09-09T11:05:20;6.13;;;5.05;;
22131;SDS011;11232;51.748;19.390;2022-09-09T11:10:44;5.22;;;4.18;;
22131;SDS011;11232;51.748;19.390;2022-09-09T11:13:42;4.60;;;4.20;;
22131;SDS011;11232;51.748;19.390;2022-09-09T11:18:47;4.03;;;3.72;;
22131;SDS011;11232;51.748;19.390;2022-09-09T11:21:21;4.10;;;3.70;;
22131;SDS011;11232;51.748;19.390;2022-09-09T11:23:56;4.80;;;3.83;;
22131;SDS011;11232;51.748;19.390;2022-09-09T11:26:44;4.28;;;3.40;;
22131;SDS011;11232;51.748;19.390;2022-09-09T11:35:19;5.30;;;3.08;;
22131;SDS011;11232;51.748;19.390;2022-09-09T11:38:18;9.07;;;3.00;;
22131;SDS011;11232;51.748;19.390;2022-09-09T11:43:53;8.45;;;3.20;;
22131;SDS011;11232;51.748;19.390;2022-09-09T11:46:22;3.60;;;2.78;;
22131;SDS011;11232;51.748;19.390;2022-09-09T11:49:03;3.42;;;3.10;;
22131;SDS011;11232;51.748;19.390;2022-09-09T11:51:31;3.53;;;3.20;;
22131;SDS011;11232;51.748;19.390;2022-09-09T11:53:59;3.28;;;2.97;;
22131;SDS011;11232;51.748;19.390;2022-09-09T11:56:47;3.13;;;2.72;;
22131;SDS011;11232;51.748;19.390;2022-09-09T11:59:20;2.10;;;1.95;;
22131;SDS011;11232;51.748;19.390;2022-09-09T12:04:59;2.70;;;2.50;;
22131;SDS011;11232;51.748;19.390;2022-09-09T12:13:16;3.10;;;2.80;;
22131;SDS011;11232;51.748;19.390;2022-09-09T12:15:48;2.90;;;2.70;;
22131;SDS011;11232;51.748;19.390;2022-09-09T12:18:24;5.05;;;2.83;;
22131;SDS011;11232;51.748;19.390;2022-09-09T12:21:02;4.78;;;3.35;;
22131;SDS011;11232;51.748;19.390;2022-09-09T12:23:50;9.27;;;3.50;;
22131;SDS011;11232;51.748;19.390;2022-09-09T12:26:33;4.70;;;3.20;;
22131;SDS011;11232;51.748;19.390;2022-09-09T12:29:23;5.45;;;3.80;;
22131;SDS011;11232;51.748;19.390;2022-09-09T12:31:57;5.90;;;3.35;;
22131;SDS011;11232;51.748;19.390;2022-09-09T12:34:32;3.30;;;3.10;;
22131;SDS011;11232;51.748;19.390;2022-09-09T12:37:16;5.93;;;3.33;;
22131;SDS011;11232;51.748;19.390;2022-09-09T12:39:52;3.95;;;3.45;;
22131;SDS011;11232;51.748;19.390;2022-09-09T12:42:19;5.43;;;3.53;;
22131;SDS011;11232;51.748;19.390;2022-09-09T12:44:52;3.85;;;3.03;;
22131;SDS011;11232;51.748;19.390;2022-09-09T12:47:27;3.25;;;2.97;;
22131;SDS011;11232;51.748;19.390;2022-09-09T12:50:03;4.47;;;3.35;;
22131;SDS011;11232;51.748;19.390;2022-09-09T12:52:31;4.28;;;3.08;;
22131;SDS011;11232;51.748;19.390;2022-09-09T12:55:01;3.42;;;3.13;;
22131;SDS011;11232;51.748;19.390;2022-09-09T12:57:30;3.85;;;2.90;;
22131;SDS011;11232;51.748;19.390;2022-09-09T13:00:18;4.63;;;3.42;;
22131;SDS011;11232;51.748;19.390;2022-09-09T13:02:48;4.50;;;4.00;;
22131;SDS011;11232;51.748;19.390;2022-09-09T13:05:26;3.45;;;2.30;;
22131;SDS011;11232;51.748;19.390;2022-09-09T13:08:02;4.07;;;2.60;;
22131;SDS011;11232;51.748;19.390;2022-09-09T13:10:31;2.90;;;2.70;;
22131;SDS011;11232;51.748;19.390;2022-09-09T13:13:03;4.03;;;2.70;;
22131;SDS011;11232;51.748;19.390;2022-09-09T13:15:37;2.95;;;2.75;;
22131;SDS011;11232;51.748;19.390;2022-09-09T13:18:04;3.08;;;2.72;;
22131;SDS011;11232;51.748;19.390;2022-09-09T13:20:36;2.80;;;2.60;;
22131;SDS011;11232;51.748;19.390;2022-09-09T13:23:02;3.20;;;2.90;;
22131;SDS011;11232;51.748;19.390;2022-09-09T13:25:28;2.90;;;2.70;;
22131;SDS011;11232;51.748;19.390;2022-09-09T13:30:31;2.95;;;2.65;;
22131;SDS011;11232;51.748;19.390;2022-09-09T13:33:05;3.28;;;2.55;;
22131;SDS011;11232;51.748;19.390;2022-09-09T13:35:55;5.10;;;2.80;;
22131;SDS011;11232;51.748;19.390;2022-09-09T13:38:23;2.75;;;2.53;;
22131;SDS011;11232;51.748;19.390;2022-09-09T13:40:59;3.28;;;2.97;;
22131;SDS011;11232;51.748;19.390;2022-09-09T13:43:29;4.03;;;2.55;;
22131;SDS011;11232;51.748;19.390;2022-09-09T13:46:06;3.25;;;2.20;;
22131;SDS011;11232;51.748;19.390;2022-09-09T13:48:56;2.65;;;2.45;;
22131;SDS011;11232;51.748;19.390;2022-09-09T13:51:27;2.88;;;2.67;;
22131;SDS011;11232;51.748;19.390;2022-09-09T13:54:12;3.65;;;2.40;;
22131;SDS011;11232;51.748;19.390;2022-09-09T13:56:40;4.60;;;2.40;;
22131;SDS011;11232;51.748;19.390;2022-09-09T13:59:14;4.43;;;3.05;;
22131;SDS011;11232;51.748;19.390;2022-09-09T14:01:41;3.40;;;2.55;;
22131;SDS011;11232;51.748;19.390;2022-09-09T14:04:07;3.45;;;2.38;;
22131;SDS011;11232;51.748;19.390;2022-09-09T14:06:34;2.95;;;2.65;;
22131;SDS011;11232;51.748;19.390;2022-09-09T14:09:03;3.03;;;2.60;;
22131;SDS011;11232;51.748;19.390;2022-09-09T14:11:29;4.63;;;2.58;;
22131;SDS011;11232;51.748;19.390;2022-09-09T14:13:55;3.47;;;3.15;;
22131;SDS011;11232;51.748;19.390;2022-09-09T14:16:20;4.10;;;3.40;;
22131;SDS011;11232;51.748;19.390;2022-09-09T14:18:46;3.70;;;2.72;;
22131;SDS011;11232;51.748;19.390;2022-09-09T14:21:12;3.38;;;2.53;;
22131;SDS011;11232;51.748;19.390;2022-09-09T14:23:39;2.80;;;2.50;;
22131;SDS011;11232;51.748;19.390;2022-09-09T14:26:05;2.97;;;2.75;;
22131;SDS011;11232;51.748;19.390;2022-09-09T14:28:35;4.40;;;2.78;;
22131;SDS011;11232;51.748;19.390;2022-09-09T14:31:02;4.22;;;2.65;;
22131;SDS011;11232;51.748;19.390;2022-09-09T14:33:29;2.78;;;2.53;;
22131;SDS011;11232;51.748;19.390;2022-09-09T14:35:56;2.97;;;2.70;;
22131;SDS011;11232;51.748;19.390;2022-09-09T14:38:23;4.03;;;2.60;;
22131;SDS011;11232;51.748;19.390;2022-09-09T14:40:49;3.22;;;2.85;;
22131;SDS011;11232;51.748;19.390;2022-09-09T14:43:15;3.25;;;2.70;;
22131;SDS011;11232;51.748;19.390;2022-09-09T14:45:40;3.45;;;2.70;;
22131;SDS011;11232;51.748;19.390;2022-09-09T14:48:06;2.30;;;2.10;;
22131;SDS011;11232;51.748;19.390;2022-09-09T14:50:31;3.20;;;2.90;;
22131;SDS011;11232;51.748;19.390;2022-09-09T14:52:57;22.30;;;15.23;;
22131;SDS011;11232;51.748;19.390;2022-09-09T14:55:23;5.50;;;4.93;;
22131;SDS011;11232;51.748;19.390;2022-09-09T14:57:48;4.60;;;3.08;;
22131;SDS011;11232;51.748;19.390;2022-09-09T15:00:14;30.00;;;20.95;;
22131;SDS011;11232;51.748;19.390;2022-09-09T15:02:41;36.97;;;28.33;;
22131;SDS011;11232;51.748;19.390;2022-09-09T15:05:07;5.15;;;4.65;;
22131;SDS011;11232;51.748;19.390;2022-09-09T15:07:33;3.25;;;2.95;;
22131;SDS011;11232;51.748;19.390;2022-09-09T15:09:59;3.00;;;2.70;;
22131;SDS011;11232;51.748;19.390;2022-09-09T15:12:24;2.80;;;2.45;;
22131;SDS011;11232;51.748;19.390;2022-09-09T15:14:50;2.92;;;2.40;;
22131;SDS011;11232;51.748;19.390;2022-09-09T15:17:16;3.85;;;2.30;;
22131;SDS011;11232;51.748;19.390;2022-09-09T15:19:41;2.60;;;2.40;;
22131;SDS011;11232;51.748;19.390;2022-09-09T15:22:07;3.17;;;2.42;;
22131;SDS011;11232;51.748;19.390;2022-09-09T15:24:34;3.10;;;2.60;;
22131;SDS011;11232;51.748;19.390;2022-09-09T15:27:00;2.55;;;2.35;;
22131;SDS011;11232;51.748;19.390;2022-09-09T15:29:26;2.58;;;2.35;;
22131;SDS011;11232;51.748;19.390;2022-09-09T15:31:55;3.20;;;2.60;;
22131;SDS011;11232;51.748;19.390;2022-09-09T15:34:21;3.83;;;2.40;;
22131;SDS011;11232;51.748;19.390;2022-09-09T15:36:47;2.60;;;2.40;;
22131;SDS011;11232;51.748;19.390;2022-09-09T15:39:15;4.10;;;2.58;;
22131;SDS011;11232;51.748;19.390;2022-09-09T15:41:42;2.53;;;2.33;;
22131;SDS011;11232;51.748;19.390;2022-09-09T15:44:09;2.78;;;2.58;;
22131;SDS011;11232;51.748;19.390;2022-09-09T15:46:39;5.05;;;2.50;;
22131;SDS011;11232;51.748;19.390;2022-09-09T15:49:20;3.38;;;2.50;;
22131;SDS011;11232;51.748;19.390;2022-09-09T15:51:55;2.83;;;2.20;;
22131;SDS011;11232;51.748;19.390;2022-09-09T15:54:22;3.08;;;2.30;;
22131;SDS011;11232;51.748;19.390;2022-09-09T15:56:52;4.15;;;2.67;;
22131;SDS011;11232;51.748;19.390;2022-09-09T15:59:20;56.00;;;33.58;;
22131;SDS011;11232;51.748;19.390;2022-09-09T16:01:47;22.40;;;15.30;;
22131;SDS011;11232;51.748;19.390;2022-09-09T16:04:16;3.95;;;3.30;;
22131;SDS011;11232;51.748;19.390;2022-09-09T16:06:48;6.28;;;3.15;;
22131;SDS011;11232;51.748;19.390;2022-09-09T16:09:28;5.35;;;3.30;;
22131;SDS011;11232;51.748;19.390;2022-09-09T16:11:57;4.70;;;3.45;;
22131;SDS011;11232;51.748;19.390;2022-09-09T16:14:25;4.60;;;4.07;;
22131;SDS011;11232;51.748;19.390;2022-09-09T16:16:51;9.63;;;4.35;;
22131;SDS011;11232;51.748;19.390;2022-09-09T16:19:17;5.80;;;4.60;;
22131;SDS011;11232;51.748;19.390;2022-09-09T16:21:48;10.75;;;4.18;;
22131;SDS011;11232;51.748;19.390;2022-09-09T16:24:15;10.07;;;4.82;;
22131;SDS011;11232;51.748;19.390;2022-09-09T16:26:43;5.40;;;4.60;;
22131;SDS011;11232;51.748;19.390;2022-09-09T16:29:11;6.95;;;4.63;;
22131;SDS011;11232;51.748;19.390;2022-09-09T16:31:37;18.42;;;6.00;;
22131;SDS011;11232;51.748;19.390;2022-09-09T16:34:04;7.70;;;5.07;;
22131;SDS011;11232;51.748;19.390;2022-09-09T16:36:31;11.40;;;5.10;;
22131;SDS011;11232;51.748;19.390;2022-09-09T16:39:05;9.13;;;5.57;;
22131;SDS011;11232;51.748;19.390;2022-09-09T16:41:34;7.65;;;5.90;;
22131;SDS011;11232;51.748;19.390;2022-09-09T16:44:01;9.55;;;6.90;;
22131;SDS011;11232;51.748;19.390;2022-09-09T16:46:29;7.50;;;5.78;;
22131;SDS011;11232;51.748;19.390;2022-09-09T16:48:56;7.85;;;5.53;;
22131;SDS011;11232;51.748;19.390;2022-09-09T16:51:29;11.52;;;5.65;;
22131;SDS011;11232;51.748;19.390;2022-09-09T16:54:03;6.57;;;5.80;;
22131;SDS011;11232;51.748;19.390;2022-09-09T16:56:35;8.60;;;5.70;;